Time;durP1;ratioP1;P1;durP2;ratioP2;P2;SDS_P1;SDS_P2;PMS_P1;PMS_P2;Temp;Humidity;BMP_temperature;BMP_pressure;BME280_temperature;BME280_humidity;BME280_pressure;Samples;Min_cycle;Max_cycle;Signal;HPM_P1;HPM_P2
2022/06/18 00:01:33;;;;;;;2.97;2.70;;;18.00;99.90;;;;;;5001399;28;20750;-82
2022/06/18 00:04:05;;;;;;;3.30;2.57;;;18.00;99.90;;;;;;4999863;28;21213;-82
2022/06/18 00:06:35;;;;;;;2.67;2.47;;;18.00;99.90;;;;;;5001940;28;20647;-82
2022/06/18 00:09:02;;;;;;;2.63;2.43;;;18.00;99.90;;;;;;5005604;28;20663;-83
2022/06/18 00:14:13;;;;;;;2.70;2.60;;;17.90;99.90;;;;;;5000829;28;20615;-82
2022/06/18 00:16:41;;;;;;;2.63;2.43;;;17.80;99.90;;;;;;5001512;28;20627;-83
2022/06/18 00:19:08;;;;;;;2.50;2.30;;;17.80;99.90;;;;;;5001445;28;20626;-83
2022/06/18 00:21:35;;;;;;;3.20;2.83;;;17.80;99.90;;;;;;5003813;28;20663;-83
2022/06/18 00:24:01;;;;;;;3.10;2.80;;;17.70;99.90;;;;;;5009407;28;20627;-83
2022/06/18 00:26:28;;;;;;;3.10;2.80;;;17.70;99.90;;;;;;5008600;28;21528;-82
2022/06/18 00:28:55;;;;;;;3.00;2.80;;;17.70;99.90;;;;;;5007216;28;20679;-82
2022/06/18 00:31:22;;;;;;;3.73;2.87;;;17.70;99.90;;;;;;5000017;28;21258;-83
2022/06/18 00:33:50;;;;;;;2.63;2.53;;;17.60;99.90;;;;;;5006145;28;20619;-83
2022/06/18 00:36:18;;;;;;;2.93;2.73;;;17.60;99.90;;;;;;5006248;28;20630;-83
2022/06/18 00:38:48;;;;;;;3.40;3.10;;;17.60;99.90;;;;;;5005267;28;20626;-83
2022/06/18 00:41:20;;;;;;;2.87;2.63;;;17.60;99.90;;;;;;5002032;28;20644;-83
2022/06/18 00:43:59;;;;;;;2.90;2.70;;;17.60;99.90;;;;;;5010112;28;21207;-83
2022/06/18 00:46:32;;;;;;;3.13;2.30;;;17.50;99.90;;;;;;5009864;28;20631;-83
2022/06/18 00:49:05;;;;;;;2.97;2.63;;;17.50;99.90;;;;;;5008322;28;20678;-82
2022/06/18 00:51:38;;;;;;;3.47;2.67;;;17.50;99.90;;;;;;5009439;28;20659;-83
2022/06/18 00:54:12;;;;;;;2.80;2.60;;;17.40;99.90;;;;;;5005966;28;20632;-82
2022/06/18 00:56:43;;;;;;;3.23;3.03;;;17.40;99.90;;;;;;5004614;28;21313;-82
2022/06/18 00:59:14;;;;;;;2.70;2.50;;;17.40;99.90;;;;;;5006511;28;20624;-82
2022/06/18 01:01:45;;;;;;;2.40;2.30;;;17.30;99.90;;;;;;5013812;28;21168;-82
2022/06/18 01:04:25;;;;;;;3.73;2.67;;;17.30;99.90;;;;;;5013797;28;20643;-81
2022/06/18 01:06:59;;;;;;;2.73;2.60;;;17.30;99.90;;;;;;5010861;28;21104;-82
2022/06/18 01:09:25;;;;;;;4.80;2.67;;;17.30;99.90;;;;;;5011973;28;20670;-82
2022/06/18 01:11:53;;;;;;;2.57;2.37;;;17.20;99.90;;;;;;5011408;28;21393;-82
2022/06/18 01:14:21;;;;;;;3.07;2.27;;;17.20;99.90;;;;;;5009165;28;21476;-83
2022/06/18 01:16:47;;;;;;;3.47;2.70;;;17.20;99.90;;;;;;5007416;28;20635;-81
2022/06/18 01:19:19;;;;;;;2.20;2.10;;;17.10;99.90;;;;;;5003563;28;20653;-81
2022/06/18 01:21:55;;;;;;;2.80;2.60;;;17.10;99.90;;;;;;5005790;28;20622;-82
2022/06/18 01:24:31;;;;;;;2.20;2.00;;;17.10;99.90;;;;;;5005968;28;20644;-81
2022/06/18 01:26:58;;;;;;;3.43;2.37;;;17.10;99.90;;;;;;5004811;28;20619;-82
2022/06/18 01:29:25;;;;;;;2.40;2.20;;;17.00;99.90;;;;;;5016155;28;20678;-81
2022/06/18 01:31:52;;;;;;;2.50;2.30;;;17.00;99.90;;;;;;5008434;28;20639;-81
2022/06/18 01:34:20;;;;;;;3.17;2.87;;;17.00;99.90;;;;;;5008701;28;20978;-82
2022/06/18 01:36:47;;;;;;;3.80;2.70;;;17.00;99.90;;;;;;5005926;28;20640;-81
2022/06/18 01:39:18;;;;;;;4.23;2.60;;;17.00;99.90;;;;;;5010727;28;20646;-81
2022/06/18 01:41:52;;;;;;;3.50;2.40;;;16.90;99.90;;;;;;5011460;28;20628;-82
2022/06/18 01:44:24;;;;;;;3.50;2.90;;;16.90;99.90;;;;;;5007151;28;20635;-80
2022/06/18 01:46:54;;;;;;;2.80;2.60;;;16.90;99.90;;;;;;5010603;28;20677;-83
2022/06/18 01:49:24;;;;;;;2.37;2.23;;;16.90;99.90;;;;;;5005492;28;20672;-82
2022/06/18 01:51:53;;;;;;;5.93;2.90;;;16.90;99.90;;;;;;5009408;28;20638;-82
2022/06/18 01:54:23;;;;;;;2.63;2.43;;;16.80;99.90;;;;;;5005786;28;20648;-80
2022/06/18 01:56:55;;;;;;;2.50;2.30;;;16.70;99.90;;;;;;5007348;28;20970;-81
2022/06/18 01:59:25;;;;;;;2.17;2.07;;;16.80;99.90;;;;;;5007993;28;20673;-81
2022/06/18 02:01:53;;;;;;;3.23;3.03;;;16.70;99.90;;;;;;5008107;28;21064;-82
2022/06/18 02:04:22;;;;;;;3.40;3.10;;;16.70;99.90;;;;;;5007644;28;20615;-82
2022/06/18 02:06:50;;;;;;;3.17;2.90;;;16.70;99.90;;;;;;5006890;28;21085;-81
2022/06/18 02:09:34;;;;;;;5.03;2.90;;;16.70;99.90;;;;;;5005703;28;20666;-81
2022/06/18 02:12:04;;;;;;;3.23;3.03;;;16.70;99.90;;;;;;5006766;28;21222;-81
2022/06/18 02:14:34;;;;;;;3.13;2.93;;;16.60;99.90;;;;;;5008006;28;20623;-81
2022/06/18 02:17:05;;;;;;;3.43;3.10;;;16.60;99.90;;;;;;5008405;28;20632;-83
2022/06/18 02:19:34;;;;;;;2.80;2.50;;;16.50;99.90;;;;;;5009933;28;20654;-81
2022/06/18 02:22:02;;;;;;;3.87;2.60;;;16.50;99.90;;;;;;5008340;28;20628;-81
2022/06/18 02:24:29;;;;;;;3.10;2.90;;;16.60;99.90;;;;;;5014673;28;20630;-81
2022/06/18 02:26:57;;;;;;;3.57;3.27;;;16.60;99.90;;;;;;5006445;28;21197;-81
2022/06/18 02:29:28;;;;;;;3.27;2.97;;;16.50;99.90;;;;;;5008632;28;20670;-82
2022/06/18 02:31:55;;;;;;;2.97;2.67;;;16.50;99.90;;;;;;5004600;28;20623;-82
2022/06/18 02:34:26;;;;;;;4.70;2.80;;;16.40;99.90;;;;;;5008516;28;21237;-82
2022/06/18 02:36:53;;;;;;;2.60;2.40;;;16.40;99.90;;;;;;5008738;28;21277;-82
2022/06/18 02:39:28;;;;;;;4.30;2.73;;;16.40;99.90;;;;;;5006921;28;20627;-81
2022/06/18 02:42:01;;;;;;;3.17;2.97;;;16.40;99.90;;;;;;5007731;28;21195;-82
2022/06/18 02:44:29;;;;;;;3.00;2.70;;;16.30;99.90;;;;;;5011947;28;20628;-81
2022/06/18 02:46:56;;;;;;;3.60;3.00;;;16.30;99.90;;;;;;5008409;28;20631;-82
2022/06/18 02:49:23;;;;;;;2.53;2.30;;;16.30;99.90;;;;;;5009552;28;20671;-82
2022/06/18 02:51:50;;;;;;;2.70;2.50;;;16.20;99.90;;;;;;5006268;28;20689;-81
2022/06/18 02:54:18;;;;;;;3.03;2.83;;;16.20;99.90;;;;;;5006406;28;21167;-81
2022/06/18 02:56:47;;;;;;;3.30;3.10;;;16.10;99.90;;;;;;5004463;28;20616;-82
2022/06/18 02:59:14;;;;;;;3.57;2.70;;;16.20;99.90;;;;;;5007503;28;20627;-82
2022/06/18 03:01:42;;;;;;;3.40;3.10;;;16.10;99.90;;;;;;5004574;28;21210;-82
2022/06/18 03:04:09;;;;;;;2.60;2.40;;;16.10;99.90;;;;;;5008317;28;20623;-82
2022/06/18 03:06:36;;;;;;;2.50;2.30;;;16.10;99.90;;;;;;5005091;28;20631;-81
2022/06/18 03:09:04;;;;;;;2.93;2.67;;;16.10;99.90;;;;;;5008495;28;20654;-81
2022/06/18 03:14:18;;;;;;;3.90;2.70;;;16.00;99.90;;;;;;5002726;28;20603;-81
2022/06/18 03:16:47;;;;;;;2.60;2.50;;;16.00;99.90;;;;;;5012027;28;20973;-82
2022/06/18 03:19:26;;;;;;;5.40;2.67;;;16.00;99.90;;;;;;5009202;28;20646;-82
2022/06/18 03:21:57;;;;;;;3.13;2.43;;;15.90;99.90;;;;;;5008142;28;20753;-81
2022/06/18 03:24:24;;;;;;;3.50;2.70;;;15.90;99.90;;;;;;5009279;28;21228;-81
2022/06/18 03:26:52;;;;;;;2.80;2.60;;;15.90;99.90;;;;;;5006742;28;20630;-81
2022/06/18 03:29:19;;;;;;;4.00;2.70;;;15.90;99.90;;;;;;5008085;28;20737;-82
2022/06/18 03:31:47;;;;;;;3.87;2.60;;;15.90;99.90;;;;;;5007675;28;20981;-82
2022/06/18 03:34:13;;;;;;;3.80;2.80;;;15.90;99.90;;;;;;5007008;28;21325;-81
2022/06/18 03:36:40;;;;;;;2.83;2.63;;;15.90;99.90;;;;;;5002481;28;20639;-81
2022/06/18 03:39:08;;;;;;;2.63;2.43;;;15.90;99.90;;;;;;5004354;28;20639;-82
2022/06/18 03:41:35;;;;;;;3.37;2.90;;;15.90;99.90;;;;;;5004864;28;20991;-82
2022/06/18 03:44:02;;;;;;;3.10;2.80;;;16.00;99.90;;;;;;4999410;28;21127;-82
2022/06/18 03:46:29;;;;;;;2.53;2.40;;;15.90;99.90;;;;;;4999436;28;20632;-82
2022/06/18 03:49:00;;;;;;;3.10;2.90;;;15.90;99.90;;;;;;5004441;28;20974;-82
2022/06/18 03:51:28;;;;;;;2.70;2.50;;;16.00;99.90;;;;;;5006705;28;20687;-82
2022/06/18 03:53:55;;;;;;;3.00;2.77;;;16.00;99.90;;;;;;5001568;28;21154;-82
2022/06/18 03:56:25;;;;;;;4.67;2.70;;;15.90;99.90;;;;;;5003945;28;20635;-81
2022/06/18 03:58:53;;;;;;;3.20;3.00;;;16.00;99.90;;;;;;5002960;28;20636;-81
2022/06/18 04:01:22;;;;;;;4.23;2.47;;;16.00;99.90;;;;;;5003998;28;21238;-82
2022/06/18 04:03:49;;;;;;;2.40;2.30;;;16.00;99.90;;;;;;5003901;28;20628;-81
2022/06/18 04:06:18;;;;;;;3.53;3.23;;;16.00;99.90;;;;;;4999035;28;20643;-82
2022/06/18 04:08:44;;;;;;;3.87;2.80;;;16.10;99.90;;;;;;4999786;28;20624;-82
2022/06/18 04:11:12;;;;;;;3.40;3.10;;;16.10;99.90;;;;;;5002819;28;20755;-81
2022/06/18 04:13:39;;;;;;;3.27;2.97;;;16.10;99.90;;;;;;5001971;28;20635;-81
2022/06/18 04:16:06;;;;;;;4.17;2.60;;;16.20;99.90;;;;;;5000774;28;20628;-81
2022/06/18 04:18:33;;;;;;;4.83;2.70;;;16.20;99.90;;;;;;5003143;28;20639;-81
2022/06/18 04:21:01;;;;;;;2.73;2.53;;;16.20;99.90;;;;;;5003649;28;20651;-81
2022/06/18 04:23:29;;;;;;;2.60;2.40;;;16.20;99.90;;;;;;5004310;28;21178;-81
2022/06/18 04:25:56;;;;;;;5.13;2.97;;;16.30;99.90;;;;;;4997794;28;21024;-81
2022/06/18 04:28:23;;;;;;;2.53;2.33;;;16.30;99.90;;;;;;5006492;28;20668;-80
2022/06/18 04:30:49;;;;;;;3.03;2.80;;;16.40;99.90;;;;;;4999984;28;20676;-81
2022/06/18 04:33:16;;;;;;;3.37;2.90;;;16.40;99.90;;;;;;4997478;28;20635;-81
2022/06/18 04:35:43;;;;;;;3.27;2.97;;;16.50;99.90;;;;;;5004337;28;20627;-81
2022/06/18 04:38:12;;;;;;;3.07;2.77;;;16.50;99.90;;;;;;4996322;28;20639;-81
2022/06/18 04:40:40;;;;;;;5.03;3.20;;;16.60;99.90;;;;;;5001283;28;20647;-81
2022/06/18 04:43:09;;;;;;;2.80;2.60;;;16.70;99.90;;;;;;5001902;28;20639;-82
2022/06/18 04:45:37;;;;;;;5.73;2.70;;;16.70;99.90;;;;;;5003930;28;20619;-81
2022/06/18 04:48:05;;;;;;;3.37;3.07;;;16.80;99.90;;;;;;5004275;28;20650;-81
2022/06/18 04:50:35;;;;;;;3.10;2.90;;;16.80;99.90;;;;;;5002020;28;20686;-82
2022/06/18 04:53:02;;;;;;;3.70;2.60;;;16.90;99.90;;;;;;5000367;28;20655;-80
2022/06/18 04:55:29;;;;;;;3.07;2.87;;;17.00;99.90;;;;;;5003410;28;20640;-81
2022/06/18 04:57:57;;;;;;;4.30;3.33;;;17.10;99.90;;;;;;5005532;28;20639;-82
2022/06/18 05:00:24;;;;;;;4.80;3.70;;;17.20;99.90;;;;;;5004489;28;21205;-82
2022/06/18 05:02:51;;;;;;;3.67;3.37;;;17.20;99.90;;;;;;5001343;28;20640;-82
2022/06/18 05:05:21;;;;;;;2.63;2.43;;;17.30;99.90;;;;;;5004503;28;20635;-82
2022/06/18 05:07:48;;;;;;;2.60;2.40;;;17.40;99.90;;;;;;4997798;28;21218;-81
2022/06/18 05:10:15;;;;;;;6.00;3.40;;;17.50;99.90;;;;;;5003222;28;20675;-82
2022/06/18 05:12:43;;;;;;;3.53;3.23;;;17.50;99.90;;;;;;5002796;28;20631;-82
2022/06/18 05:15:12;;;;;;;3.17;2.97;;;17.50;99.90;;;;;;5006711;28;20988;-82
2022/06/18 05:17:43;;;;;;;3.17;2.87;;;17.60;99.90;;;;;;5002805;28;20631;-82
2022/06/18 05:20:13;;;;;;;3.20;2.90;;;17.70;99.90;;;;;;5002140;28;20734;-82
2022/06/18 05:22:40;;;;;;;3.13;2.93;;;17.70;99.90;;;;;;5008552;28;20654;-82
2022/06/18 05:25:09;;;;;;;3.10;2.90;;;17.80;99.90;;;;;;5007694;28;20714;-82
2022/06/18 05:27:37;;;;;;;3.20;2.57;;;17.90;99.90;;;;;;5010874;28;20673;-84
2022/06/18 05:30:05;;;;;;;3.03;2.73;;;18.00;99.90;;;;;;5007689;28;20705;-82
2022/06/18 05:32:33;;;;;;;4.13;2.90;;;18.00;99.90;;;;;;5004519;28;20658;-82
2022/06/18 05:35:00;;;;;;;2.97;2.67;;;18.10;99.90;;;;;;5008784;28;20707;-82
2022/06/18 05:37:30;;;;;;;4.30;2.97;;;18.00;99.90;;;;;;5003842;28;20967;-82
2022/06/18 05:39:57;;;;;;;3.37;3.07;;;18.00;99.90;;;;;;5002174;28;20651;-82
2022/06/18 05:42:24;;;;;;;3.50;2.50;;;18.20;99.90;;;;;;5009424;28;20638;-82
2022/06/18 05:44:51;;;;;;;2.57;2.40;;;18.30;99.90;;;;;;5008576;28;20631;-82
2022/06/18 05:47:22;;;;;;;3.90;3.50;;;18.40;99.90;;;;;;5011992;28;21084;-81
2022/06/18 05:49:51;;;;;;;2.53;2.33;;;18.60;99.90;;;;;;5012858;28;20655;-82
2022/06/18 05:52:18;;;;;;;3.57;3.20;;;18.60;99.90;;;;;;5013473;28;20751;-82
2022/06/18 05:54:45;;;;;;;7.77;3.40;;;18.70;99.90;;;;;;5015024;28;20647;-81
2022/06/18 05:57:12;;;;;;;3.40;2.17;;;18.80;99.90;;;;;;5013855;28;20641;-82
2022/06/18 05:59:40;;;;;;;3.67;3.37;;;18.90;99.90;;;;;;5010283;28;20658;-82
2022/06/18 06:02:07;;;;;;;3.10;2.80;;;19.00;99.90;;;;;;5013186;28;20713;-82
2022/06/18 06:04:34;;;;;;;3.03;2.83;;;19.20;99.90;;;;;;5011840;28;20638;-82
2022/06/18 06:07:02;;;;;;;9.20;2.87;;;19.30;99.90;;;;;;5012344;28;20636;-82
2022/06/18 06:12:13;;;;;;;2.70;2.50;;;19.60;99.90;;;;;;4989142;28;21167;-82
2022/06/18 06:14:41;;;;;;;3.40;3.10;;;19.60;99.90;;;;;;5004811;28;20627;-81
2022/06/18 06:17:14;;;;;;;3.30;2.87;;;19.80;99.90;;;;;;5010261;28;20639;-81
2022/06/18 06:19:41;;;;;;;4.27;3.17;;;19.90;99.90;;;;;;5014049;28;20658;-81
2022/06/18 06:22:09;;;;;;;3.20;3.00;;;20.00;99.90;;;;;;5013316;28;20642;-81
2022/06/18 06:24:36;;;;;;;3.60;3.30;;;20.00;99.90;;;;;;5013359;28;21220;-82
2022/06/18 06:27:03;;;;;;;2.90;2.70;;;20.10;99.90;;;;;;5011100;28;20634;-81
2022/06/18 06:29:29;;;;;;;3.10;2.80;;;20.00;99.90;;;;;;5001764;28;20990;-81
2022/06/18 06:31:56;;;;;;;4.40;3.40;;;20.20;99.90;;;;;;5007654;28;20748;-81
2022/06/18 06:34:24;;;;;;;3.73;3.40;;;20.30;99.90;;;;;;5012892;28;20636;-81
2022/06/18 06:36:52;;;;;;;3.40;3.10;;;20.50;99.90;;;;;;5012338;28;20694;-81
2022/06/18 06:39:20;;;;;;;3.30;3.00;;;20.60;99.90;;;;;;5010190;28;20673;-80
2022/06/18 06:41:46;;;;;;;3.50;2.70;;;20.60;99.90;;;;;;5002030;28;20635;-81
2022/06/18 06:44:13;;;;;;;3.90;3.03;;;20.80;99.90;;;;;;5009689;28;20643;-81
2022/06/18 06:46:40;;;;;;;3.33;3.13;;;20.90;99.90;;;;;;5010267;28;20641;-81
2022/06/18 06:49:07;;;;;;;3.00;2.80;;;20.90;99.90;;;;;;5009050;28;20713;-81
2022/06/18 06:51:37;;;;;;;3.10;2.80;;;21.00;99.90;;;;;;5006674;28;20687;-81
2022/06/18 06:54:05;;;;;;;4.00;2.90;;;21.10;99.90;;;;;;5004050;28;20639;-81
2022/06/18 06:59:29;;;;;;;3.53;3.27;;;21.20;99.90;;;;;;4962885;28;20677;-81
2022/06/18 07:02:02;;;;;;;3.27;3.07;;;21.50;99.90;;;;;;4995024;28;21376;-81
2022/06/18 07:04:29;;;;;;;3.00;2.50;;;21.60;99.90;;;;;;5012018;28;21280;-82
2022/06/18 07:06:57;;;;;;;5.80;2.50;;;21.70;99.90;;;;;;5007196;28;20668;-81
2022/06/18 07:09:24;;;;;;;3.30;3.10;;;21.80;99.90;;;;;;5004990;28;20646;-82
2022/06/18 07:11:53;;;;;;;4.10;3.20;;;22.00;99.90;;;;;;5008568;28;21188;-82
2022/06/18 07:14:19;;;;;;;3.13;2.93;;;22.10;99.90;;;;;;5003213;28;21104;-81
2022/06/18 07:16:50;;;;;;;3.37;3.17;;;22.20;99.10;;;;;;5005074;28;21430;-82
2022/06/18 07:19:18;;;;;;;3.43;3.10;;;22.30;99.00;;;;;;5004808;28;21191;-81
2022/06/18 07:21:45;;;;;;;3.03;2.83;;;22.50;98.10;;;;;;5014115;28;20606;-81
2022/06/18 07:24:11;;;;;;;3.40;3.20;;;22.70;98.20;;;;;;5006900;28;20659;-80
2022/06/18 07:26:38;;;;;;;2.90;2.70;;;22.80;97.90;;;;;;5007607;28;20637;-80
2022/06/18 07:29:06;;;;;;;3.40;3.03;;;23.00;97.80;;;;;;5010676;28;20629;-80
2022/06/18 07:31:35;;;;;;;3.73;3.53;;;23.10;96.80;;;;;;5008818;28;20684;-81
2022/06/18 07:34:04;;;;;;;3.30;3.03;;;23.20;97.00;;;;;;5010512;28;21206;-80
2022/06/18 07:36:32;;;;;;;3.03;2.70;;;23.30;96.90;;;;;;5014209;28;20628;-81
2022/06/18 07:39:00;;;;;;;3.53;2.93;;;23.50;97.30;;;;;;5011833;28;20706;-81
2022/06/18 07:41:33;;;;;;;2.93;2.53;;;23.70;97.10;;;;;;5012080;28;20678;-81
2022/06/18 07:44:00;;;;;;;3.00;2.80;;;23.70;97.20;;;;;;5006966;28;21056;-81
2022/06/18 07:46:29;;;;;;;3.13;2.83;;;23.90;96.60;;;;;;5010680;28;20638;-81
2022/06/18 07:48:56;;;;;;;3.03;2.83;;;24.10;96.20;;;;;;5007325;28;21190;-81
2022/06/18 07:51:24;;;;;;;3.00;2.80;;;24.10;95.90;;;;;;5009113;28;20682;-81
2022/06/18 07:53:51;;;;;;;3.30;3.10;;;24.20;96.00;;;;;;5009174;28;20622;-81
2022/06/18 07:56:18;;;;;;;2.87;2.67;;;24.30;95.90;;;;;;5010750;28;20646;-81
2022/06/18 07:58:45;;;;;;;3.10;2.90;;;24.50;96.00;;;;;;5006674;28;20984;-80
2022/06/18 08:01:11;;;;;;;3.17;2.83;;;24.50;95.30;;;;;;5010008;28;20662;-81
2022/06/18 08:03:39;;;;;;;3.00;2.80;;;24.60;95.50;;;;;;5012174;28;20627;-81
2022/06/18 08:06:08;;;;;;;4.30;3.90;;;24.70;95.50;;;;;;5008711;28;20639;-81
2022/06/18 08:08:36;;;;;;;3.00;2.80;;;24.80;95.30;;;;;;5013028;28;20622;-80
2022/06/18 08:11:05;;;;;;;5.00;3.50;;;24.80;94.70;;;;;;5008970;28;20679;-81
2022/06/18 08:13:32;;;;;;;4.07;3.20;;;24.90;94.70;;;;;;5005740;28;20640;-80
2022/06/18 08:15:59;;;;;;;2.90;2.70;;;25.00;94.70;;;;;;5006488;28;20628;-80
2022/06/18 08:18:26;;;;;;;4.70;2.93;;;25.10;94.60;;;;;;5009441;28;20643;-80
2022/06/18 08:20:54;;;;;;;3.57;3.27;;;25.20;94.70;;;;;;5006182;28;20658;-80
2022/06/18 08:23:21;;;;;;;3.40;3.17;;;25.30;94.30;;;;;;5002251;28;20642;-80
2022/06/18 08:25:47;;;;;;;5.20;3.73;;;25.50;94.30;;;;;;5006821;28;21194;-80
2022/06/18 08:28:15;;;;;;;3.07;2.87;;;25.40;93.50;;;;;;5007535;28;20680;-81
2022/06/18 08:30:42;;;;;;;3.87;3.37;;;25.50;93.30;;;;;;5008970;28;20655;-80
2022/06/18 08:33:09;;;;;;;5.83;2.90;;;25.70;93.70;;;;;;5011546;28;20702;-81
2022/06/18 08:35:37;;;;;;;7.80;3.23;;;25.80;92.90;;;;;;5013052;28;20634;-80
2022/06/18 08:38:08;;;;;;;3.40;2.87;;;25.90;92.70;;;;;;4998136;28;20663;-80
2022/06/18 08:40:56;;;;;;;3.07;2.87;;;25.90;93.00;;;;;;5006217;28;20659;-80
2022/06/18 08:43:57;;;;;;;6.03;2.93;;;26.10;92.50;;;;;;5006679;28;20658;-80
2022/06/18 08:46:32;;;;;;;3.00;2.80;;;26.20;91.50;;;;;;4999084;28;20640;-80
2022/06/18 08:49:21;;;;;;;7.20;3.20;;;26.30;91.10;;;;;;5012085;28;21062;-80
2022/06/18 08:52:01;;;;;;;3.27;3.00;;;26.50;90.30;;;;;;5008121;28;20667;-80
2022/06/18 08:54:41;;;;;;;2.70;2.50;;;26.70;88.40;;;;;;5010984;28;20627;-80
2022/06/18 08:57:20;;;;;;;3.27;3.00;;;26.80;88.80;;;;;;5002140;28;20642;-80
2022/06/18 08:59:58;;;;;;;2.63;2.47;;;26.90;90.00;;;;;;5002361;28;20959;-80
2022/06/18 09:02:30;;;;;;;3.57;3.20;;;27.10;87.80;;;;;;5007996;28;21203;-80
2022/06/18 09:05:14;;;;;;;4.03;2.80;;;27.10;85.70;;;;;;5005643;28;21255;-80
2022/06/18 09:08:11;;;;;;;4.80;2.80;;;27.10;85.00;;;;;;5003824;28;20618;-81
2022/06/18 09:10:51;;;;;;;4.30;3.13;;;27.30;84.20;;;;;;5008729;28;20690;-80
2022/06/18 09:13:22;;;;;;;2.60;2.40;;;27.50;84.50;;;;;;5005850;28;20630;-80
2022/06/18 09:15:55;;;;;;;2.83;2.43;;;27.50;82.20;;;;;;5008860;28;20700;-80
2022/06/18 09:18:26;;;;;;;6.13;2.47;;;27.60;79.00;;;;;;5005286;28;20636;-80
2022/06/18 09:20:55;;;;;;;2.10;2.00;;;27.70;76.60;;;;;;5012444;28;20675;-81
2022/06/18 09:23:27;;;;;;;3.80;3.50;;;27.90;74.80;;;;;;5012690;28;20627;-82
2022/06/18 09:25:58;;;;;;;9.40;8.37;;;28.10;73.90;;;;;;5011645;28;20620;-81
2022/06/18 09:28:28;;;;;;;8.20;6.40;;;28.30;70.60;;;;;;5014209;28;20623;-82
2022/06/18 09:31:03;;;;;;;2.93;2.63;;;28.30;71.50;;;;;;5011562;28;20682;-80
2022/06/18 09:33:35;;;;;;;3.63;3.27;;;28.40;67.60;;;;;;5015994;28;20630;-79
2022/06/18 09:36:12;;;;;;;4.10;2.17;;;28.50;66.00;;;;;;5014300;28;20638;-81
2022/06/18 09:38:43;;;;;;;4.17;2.30;;;28.60;62.10;;;;;;5008860;28;20638;-81
2022/06/18 09:41:16;;;;;;;2.67;2.40;;;28.70;61.80;;;;;;5007984;28;21230;-82
2022/06/18 09:43:51;;;;;;;2.00;1.90;;;28.80;65.60;;;;;;5013489;28;20623;-81
2022/06/18 09:46:23;;;;;;;4.30;2.10;;;28.90;65.00;;;;;;5011031;28;20645;-81
2022/06/18 09:48:50;;;;;;;4.40;2.27;;;28.90;64.80;;;;;;5012828;28;20619;-82
2022/06/18 09:51:23;;;;;;;2.83;2.43;;;28.90;65.50;;;;;;5011018;28;20663;-82
2022/06/18 09:53:51;;;;;;;2.80;2.60;;;29.00;64.80;;;;;;5012329;28;20653;-82
2022/06/18 09:56:24;;;;;;;3.80;2.60;;;29.10;67.30;;;;;;5012689;28;20639;-82
2022/06/18 09:58:55;;;;;;;2.93;2.73;;;29.20;66.90;;;;;;5009211;28;20641;-82
2022/06/18 10:01:27;;;;;;;2.80;2.60;;;29.40;63.60;;;;;;5011381;28;20693;-81
2022/06/18 10:06:55;;;;;;;3.70;2.90;;;29.50;60.20;;;;;;5004809;28;20627;-81
2022/06/18 10:09:25;;;;;;;2.60;2.20;;;29.50;59.60;;;;;;5005768;28;20788;-81
2022/06/18 10:11:54;;;;;;;2.00;1.90;;;29.70;59.10;;;;;;5008127;28;20672;-81
2022/06/18 10:14:23;;;;;;;2.30;2.10;;;29.70;59.80;;;;;;5013096;28;20655;-82
2022/06/18 10:17:04;;;;;;;2.73;2.00;;;29.80;59.10;;;;;;5011852;28;20641;-81
2022/06/18 10:19:40;;;;;;;2.23;2.13;;;29.80;58.80;;;;;;5014394;28;20661;-81
2022/06/18 10:22:15;;;;;;;2.33;2.23;;;30.00;58.30;;;;;;5009497;28;20637;-81
2022/06/18 10:24:48;;;;;;;1.87;1.73;;;30.10;58.20;;;;;;5007435;28;20623;-81
2022/06/18 10:27:25;;;;;;;2.80;2.07;;;30.20;58.00;;;;;;5012505;28;20631;-81
2022/06/18 10:30:02;;;;;;;2.83;2.53;;;30.40;57.20;;;;;;5006126;28;21209;-81
2022/06/18 10:32:42;;;;;;;2.33;2.20;;;30.30;55.20;;;;;;5013409;28;20671;-81
2022/06/18 10:35:21;;;;;;;2.53;2.33;;;30.40;55.50;;;;;;5013131;28;20626;-81
2022/06/18 10:37:57;;;;;;;7.13;2.00;;;30.50;55.30;;;;;;5011204;28;20692;-81
2022/06/18 10:40:35;;;;;;;2.40;1.70;;;30.70;55.40;;;;;;5003335;28;20667;-81
2022/06/18 10:43:14;;;;;;;2.20;2.00;;;30.90;54.10;;;;;;5008000;28;20629;-81
2022/06/18 10:45:46;;;;;;;3.10;1.97;;;30.90;52.90;;;;;;5003796;28;20650;-81
2022/06/18 10:48:15;;;;;;;1.90;1.80;;;30.90;52.40;;;;;;5004519;28;20631;-81
2022/06/18 10:50:44;;;;;;;2.00;1.90;;;31.20;53.40;;;;;;5008691;28;20655;-81
2022/06/18 10:53:14;;;;;;;1.93;1.83;;;31.50;52.70;;;;;;5010345;28;20710;-81
2022/06/18 10:55:42;;;;;;;2.20;2.10;;;31.70;52.10;;;;;;5011990;28;20631;-81
2022/06/18 10:58:13;;;;;;;1.77;1.67;;;32.00;53.20;;;;;;5009190;28;20658;-80
2022/06/18 11:00:42;;;;;;;3.93;2.37;;;32.20;51.80;;;;;;5006578;28;20656;-81
2022/06/18 11:03:20;;;;;;;1.87;1.63;;;32.30;52.60;;;;;;5012054;28;20635;-80
2022/06/18 11:05:48;;;;;;;1.80;1.70;;;32.40;50.30;;;;;;5006760;28;20642;-81
2022/06/18 11:08:22;;;;;;;2.40;2.10;;;32.40;49.30;;;;;;5007828;28;20634;-81
2022/06/18 11:10:53;;;;;;;2.07;1.80;;;32.40;50.10;;;;;;5009620;28;20678;-81
2022/06/18 11:13:29;;;;;;;6.53;2.20;;;32.60;49.40;;;;;;5004424;28;20686;-81
2022/06/18 11:16:12;;;;;;;7.17;1.80;;;32.90;49.30;;;;;;5010456;28;20619;-81
2022/06/18 11:18:48;;;;;;;1.77;1.67;;;32.90;48.20;;;;;;5009767;28;20610;-81
2022/06/18 11:21:25;;;;;;;2.07;1.97;;;33.20;48.00;;;;;;5012318;28;20742;-81
2022/06/18 11:23:56;;;;;;;2.97;2.00;;;33.40;46.30;;;;;;5011309;28;20686;-81
2022/06/18 11:26:25;;;;;;;2.07;1.80;;;33.80;46.90;;;;;;5010078;28;20626;-81
2022/06/18 11:28:57;;;;;;;3.03;1.90;;;34.10;45.80;;;;;;5014681;28;20624;-81
2022/06/18 11:31:27;;;;;;;2.37;2.03;;;34.50;44.90;;;;;;5010158;28;20670;-81
2022/06/18 11:33:59;;;;;;;2.43;1.70;;;34.90;45.40;;;;;;5013129;28;21265;-81
2022/06/18 11:36:44;;;;;;;1.80;1.70;;;34.80;43.00;;;;;;5011757;28;20631;-81
2022/06/18 11:39:26;;;;;;;3.70;2.00;;;35.00;43.50;;;;;;5004891;28;21774;-81
2022/06/18 11:41:56;;;;;;;5.83;2.37;;;35.20;41.70;;;;;;5005020;28;20630;-81
2022/06/18 11:44:28;;;;;;;2.10;2.00;;;35.20;42.20;;;;;;5003777;28;20766;-81
2022/06/18 11:47:02;;;;;;;3.93;2.20;;;35.40;41.50;;;;;;5006971;28;20623;-81
2022/06/18 11:49:32;;;;;;;9.53;2.37;;;35.50;42.60;;;;;;5007961;28;20623;-82
2022/06/18 11:52:14;;;;;;;2.37;2.07;;;35.60;41.40;;;;;;5003628;28;21441;-81
2022/06/18 11:54:50;;;;;;;2.70;1.70;;;35.90;41.00;;;;;;5003182;28;20619;-81
2022/06/18 11:57:24;;;;;;;2.83;1.93;;;36.20;41.90;;;;;;5000814;28;20627;-81
2022/06/18 12:00:01;;;;;;;4.17;2.40;;;36.30;41.10;;;;;;4996646;28;20661;-81
2022/06/18 12:02:33;;;;;;;3.77;2.20;;;36.30;40.70;;;;;;5004795;28;20825;-81
2022/06/18 12:05:06;;;;;;;3.93;2.63;;;36.70;41.00;;;;;;5008097;28;20216;-81
2022/06/18 12:07:38;;;;;;;6.50;2.80;;;37.00;41.20;;;;;;5010283;28;20679;-81
2022/06/18 12:10:10;;;;;;;4.67;2.50;;;37.10;40.60;;;;;;5011104;28;20230;-82
2022/06/18 12:12:52;;;;;;;6.47;2.80;;;37.20;40.50;;;;;;5011315;28;20553;-82
2022/06/18 12:15:28;;;;;;;7.20;2.78;;;37.60;41.40;;;;;;5007837;28;20563;-81
2022/06/18 12:18:01;;;;;;;4.57;2.60;;;37.50;41.10;;;;;;5008704;28;20279;-81
2022/06/18 12:20:59;;;;;;;6.22;2.67;;;37.90;41.80;;;;;;5007467;28;20227;-81
2022/06/18 12:23:37;;;;;;;7.03;3.50;;;38.20;40.10;;;;;;5000470;28;20204;-81
2022/06/18 12:26:09;;;;;;;13.32;2.92;;;38.30;39.30;;;;;;5006120;28;20663;-81
2022/06/18 12:28:46;;;;;;;5.10;3.00;;;38.40;38.60;;;;;;5012263;28;20199;-81
2022/06/18 12:31:20;;;;;;;5.65;2.95;;;38.70;38.70;;;;;;5011644;28;20256;-82
2022/06/18 12:33:56;;;;;;;4.75;3.20;;;38.80;38.40;;;;;;5007731;28;20684;-82
2022/06/18 12:36:33;;;;;;;5.95;2.63;;;38.80;38.20;;;;;;5009551;28;20211;-81
2022/06/18 12:39:06;;;;;;;4.97;3.28;;;38.80;38.60;;;;;;5003793;28;20266;-81
2022/06/18 12:41:40;;;;;;;6.47;2.90;;;38.50;38.20;;;;;;5010321;28;20771;-81
2022/06/18 12:44:25;;;;;;;6.45;3.42;;;39.00;38.30;;;;;;5009287;28;20211;-82
2022/06/18 12:47:02;;;;;;;3.92;3.00;;;39.10;37.10;;;;;;5003518;28;20212;-82
2022/06/18 12:49:38;;;;;;;9.27;2.95;;;39.60;39.00;;;;;;5009630;28;20828;-82
2022/06/18 12:52:14;;;;;;;6.93;3.40;;;40.00;37.70;;;;;;5002093;28;20206;-81
2022/06/18 12:55:06;;;;;;;11.35;2.97;;;40.30;36.80;;;;;;4998340;28;20210;-82
2022/06/18 12:57:44;;;;;;;4.88;3.25;;;39.70;37.00;;;;;;4999780;28;20196;-82
2022/06/18 13:00:15;;;;;;;7.90;3.35;;;40.20;38.10;;;;;;5004961;28;21036;-81
2022/06/18 13:03:35;;;;;;;5.65;3.10;;;40.60;36.70;;;;;;5002042;28;20231;-82
2022/06/18 13:06:10;;;;;;;5.50;2.50;;;41.00;36.10;;;;;;4925028;28;1076956;-82
2022/06/18 13:08:48;;;;;;;4.32;2.90;;;40.80;35.90;;;;;;4964468;28;20651;-81
2022/06/18 13:11:23;;;;;;;7.88;3.28;;;40.80;35.40;;;;;;4994061;28;20239;-81
2022/06/18 13:14:04;;;;;;;12.10;3.30;;;41.10;35.30;;;;;;5006137;28;20235;-82
2022/06/18 13:16:37;;;;;;;8.10;3.30;;;40.80;35.10;;;;;;5008848;28;20208;-82
2022/06/18 13:19:11;;;;;;;5.82;2.67;;;40.70;35.50;;;;;;5001370;28;20197;-81